sensor_id;sensor_type;location;lat;lon;timestamp;temperature;humidity
12907;DHT22;6521;50.498;8.474;2022-11-02T00:00:43;10.78;73.80
12907;DHT22;6521;50.498;8.474;2022-11-02T00:03:14;10.78;74.00
12907;DHT22;6521;50.498;8.474;2022-11-02T00:05:45;10.78;73.90
12907;DHT22;6521;50.498;8.474;2022-11-02T00:08:16;10.74;74.36
12907;DHT22;6521;50.498;8.474;2022-11-02T00:10:46;10.77;74.14
12907;DHT22;6521;50.498;8.474;2022-11-02T00:13:23;10.83;74.06
12907;DHT22;6521;50.498;8.474;2022-11-02T00:15:54;10.83;74.05
12907;DHT22;6521;50.498;8.474;2022-11-02T00:18:25;10.88;74.04
12907;DHT22;6521;50.498;8.474;2022-11-02T00:20:56;10.88;73.89
12907;DHT22;6521;50.498;8.474;2022-11-02T00:23:27;10.85;74.15
12907;DHT22;6521;50.498;8.474;2022-11-02T00:26:00;10.90;73.90
12907;DHT22;6521;50.498;8.474;2022-11-02T00:28:31;10.97;73.68
12907;DHT22;6521;50.498;8.474;2022-11-02T00:31:01;10.96;73.87
12907;DHT22;6521;50.498;8.474;2022-11-02T00:33:32;10.98;73.77
12907;DHT22;6521;50.498;8.474;2022-11-02T00:36:03;10.94;73.86
12907;DHT22;6521;50.498;8.474;2022-11-02T00:38:34;10.94;73.89
12907;DHT22;6521;50.498;8.474;2022-11-02T00:41:05;11.03;73.70
12907;DHT22;6521;50.498;8.474;2022-11-02T00:43:36;11.01;73.68
12907;DHT22;6521;50.498;8.474;2022-11-02T00:46:07;10.94;73.97
12907;DHT22;6521;50.498;8.474;2022-11-02T00:48:38;10.94;74.07
12907;DHT22;6521;50.498;8.474;2022-11-02T00:51:09;10.91;74.22
12907;DHT22;6521;50.498;8.474;2022-11-02T00:53:40;10.87;74.47
12907;DHT22;6521;50.498;8.474;2022-11-02T00:56:11;10.88;74.39
12907;DHT22;6521;50.498;8.474;2022-11-02T00:58:42;10.88;74.56
12907;DHT22;6521;50.498;8.474;2022-11-02T01:01:14;10.83;74.62
12907;DHT22;6521;50.498;8.474;2022-11-02T01:03:44;10.81;74.66
12907;DHT22;6521;50.498;8.474;2022-11-02T01:06:15;10.88;74.43
12907;DHT22;6521;50.498;8.474;2022-11-02T01:08:46;10.90;74.52
12907;DHT22;6521;50.498;8.474;2022-11-02T01:11:19;10.91;74.40
12907;DHT22;6521;50.498;8.474;2022-11-02T01:13:51;10.85;74.57
12907;DHT22;6521;50.498;8.474;2022-11-02T01:16:22;10.80;74.77
12907;DHT22;6521;50.498;8.474;2022-11-02T01:18:55;10.77;74.86
12907;DHT22;6521;50.498;8.474;2022-11-02T01:21:26;10.76;75.03
12907;DHT22;6521;50.498;8.474;2022-11-02T01:23:57;10.77;74.94
12907;DHT22;6521;50.498;8.474;2022-11-02T01:26:28;10.71;75.10
12907;DHT22;6521;50.498;8.474;2022-11-02T01:28:58;10.76;75.15
12907;DHT22;6521;50.498;8.474;2022-11-02T01:31:29;10.76;75.05
12907;DHT22;6521;50.498;8.474;2022-11-02T01:34:00;10.74;75.37
12907;DHT22;6521;50.498;8.474;2022-11-02T01:36:31;10.76;75.46
12907;DHT22;6521;50.498;8.474;2022-11-02T01:39:02;10.71;75.46
12907;DHT22;6521;50.498;8.474;2022-11-02T01:41:33;10.68;75.60
12907;DHT22;6521;50.498;8.474;2022-11-02T01:44:04;10.66;75.53
12907;DHT22;6521;50.498;8.474;2022-11-02T01:46:43;10.70;75.63
12907;DHT22;6521;50.498;8.474;2022-11-02T01:49:17;10.71;75.54
12907;DHT22;6521;50.498;8.474;2022-11-02T01:52:13;10.68;75.76
12907;DHT22;6521;50.498;8.474;2022-11-02T01:54:51;10.71;75.68
12907;DHT22;6521;50.498;8.474;2022-11-02T01:57:24;10.70;75.76
12907;DHT22;6521;50.498;8.474;2022-11-02T02:00:03;10.71;75.82
12907;DHT22;6521;50.498;8.474;2022-11-02T02:02:59;10.70;75.88
12907;DHT22;6521;50.498;8.474;2022-11-02T02:05:33;10.73;75.87
12907;DHT22;6521;50.498;8.474;2022-11-02T02:08:04;10.71;75.90
12907;DHT22;6521;50.498;8.474;2022-11-02T02:10:38;10.71;75.82
12907;DHT22;6521;50.498;8.474;2022-11-02T02:13:10;10.71;76.02
12907;DHT22;6521;50.498;8.474;2022-11-02T02:18:42;10.71;76.11
12907;DHT22;6521;50.498;8.474;2022-11-02T02:27:01;10.71;76.41
12907;DHT22;6521;50.498;8.474;2022-11-02T02:30:03;10.73;76.30
12907;DHT22;6521;50.498;8.474;2022-11-02T02:32:55;10.71;76.61
12907;DHT22;6521;50.498;8.474;2022-11-02T02:38:10;10.70;76.77
12907;DHT22;6521;50.498;8.474;2022-11-02T02:40:48;10.76;76.71
12907;DHT22;6521;50.498;8.474;2022-11-02T02:43:33;10.85;76.53
12907;DHT22;6521;50.498;8.474;2022-11-02T02:46:17;10.91;76.46
12907;DHT22;6521;50.498;8.474;2022-11-02T02:48:50;10.94;76.42
12907;DHT22;6521;50.498;8.474;2022-11-02T02:51:30;11.04;76.15
12907;DHT22;6521;50.498;8.474;2022-11-02T02:54:05;11.07;75.87
12907;DHT22;6521;50.498;8.474;2022-11-02T02:56:40;11.11;75.97
12907;DHT22;6521;50.498;8.474;2022-11-02T02:59:30;11.19;75.55
12907;DHT22;6521;50.498;8.474;2022-11-02T03:02:12;11.19;75.56
12907;DHT22;6521;50.498;8.474;2022-11-02T03:04:45;11.21;75.78
12907;DHT22;6521;50.498;8.474;2022-11-02T03:07:21;11.25;75.64
12907;DHT22;6521;50.498;8.474;2022-11-02T03:10:11;11.32;75.39
12907;DHT22;6521;50.498;8.474;2022-11-02T03:19:03;11.18;76.26
12907;DHT22;6521;50.498;8.474;2022-11-02T03:21:41;11.21;76.17
12907;DHT22;6521;50.498;8.474;2022-11-02T03:27:14;11.24;75.94
12907;DHT22;6521;50.498;8.474;2022-11-02T03:29:55;11.26;75.78
12907;DHT22;6521;50.498;8.474;2022-11-02T03:38:06;11.26;75.93
12907;DHT22;6521;50.498;8.474;2022-11-02T03:40:45;11.24;76.07
12907;DHT22;6521;50.498;8.474;2022-11-02T03:43:17;11.24;76.22
12907;DHT22;6521;50.498;8.474;2022-11-02T03:45:55;11.22;76.28
12907;DHT22;6521;50.498;8.474;2022-11-02T03:48:30;11.24;76.31
12907;DHT22;6521;50.498;8.474;2022-11-02T03:51:06;11.21;76.53
12907;DHT22;6521;50.498;8.474;2022-11-02T03:53:53;11.22;76.71
12907;DHT22;6521;50.498;8.474;2022-11-02T03:56:31;11.24;76.65
12907;DHT22;6521;50.498;8.474;2022-11-02T03:59:03;11.19;76.89
12907;DHT22;6521;50.498;8.474;2022-11-02T04:01:40;11.19;77.05
12907;DHT22;6521;50.498;8.474;2022-11-02T04:04:12;11.18;77.03
12907;DHT22;6521;50.498;8.474;2022-11-02T04:06:45;11.22;76.90
12907;DHT22;6521;50.498;8.474;2022-11-02T04:09:17;11.24;76.91
12907;DHT22;6521;50.498;8.474;2022-11-02T04:11:49;11.28;76.91
12907;DHT22;6521;50.498;8.474;2022-11-02T04:14:38;11.29;76.87
12907;DHT22;6521;50.498;8.474;2022-11-02T04:17:16;11.34;76.57
12907;DHT22;6521;50.498;8.474;2022-11-02T04:20:11;11.35;76.66
12907;DHT22;6521;50.498;8.474;2022-11-02T04:22:42;11.32;76.77
12907;DHT22;6521;50.498;8.474;2022-11-02T04:25:31;11.32;76.76
12907;DHT22;6521;50.498;8.474;2022-11-02T04:28:18;11.25;77.06
12907;DHT22;6521;50.498;8.474;2022-11-02T04:30:53;11.17;77.27
12907;DHT22;6521;50.498;8.474;2022-11-02T04:33:26;11.15;77.40
12907;DHT22;6521;50.498;8.474;2022-11-02T04:36:12;11.05;77.73
12907;DHT22;6521;50.498;8.474;2022-11-02T04:38:44;11.04;77.85
12907;DHT22;6521;50.498;8.474;2022-11-02T04:41:47;11.00;77.92
12907;DHT22;6521;50.498;8.474;2022-11-02T04:44:32;10.96;78.28
12907;DHT22;6521;50.498;8.474;2022-11-02T04:47:06;10.96;78.16
12907;DHT22;6521;50.498;8.474;2022-11-02T04:49:38;10.91;78.36
12907;DHT22;6521;50.498;8.474;2022-11-02T04:52:13;10.83;78.57
12907;DHT22;6521;50.498;8.474;2022-11-02T04:54:50;10.78;78.66
12907;DHT22;6521;50.498;8.474;2022-11-02T04:57:22;10.71;78.86
12907;DHT22;6521;50.498;8.474;2022-11-02T04:59:53;10.70;78.99
12907;DHT22;6521;50.498;8.474;2022-11-02T05:02:24;10.64;79.31
12907;DHT22;6521;50.498;8.474;2022-11-02T05:04:55;10.59;79.36
12907;DHT22;6521;50.498;8.474;2022-11-02T05:07:26;10.55;79.77
12907;DHT22;6521;50.498;8.474;2022-11-02T05:09:57;10.53;79.82
12907;DHT22;6521;50.498;8.474;2022-11-02T05:12:28;10.53;79.83
12907;DHT22;6521;50.498;8.474;2022-11-02T05:14:59;10.49;79.86
12907;DHT22;6521;50.498;8.474;2022-11-02T05:17:30;10.39;80.11
12907;DHT22;6521;50.498;8.474;2022-11-02T05:20:02;10.33;80.24
12907;DHT22;6521;50.498;8.474;2022-11-02T05:22:34;10.26;80.57
12907;DHT22;6521;50.498;8.474;2022-11-02T05:25:05;10.28;80.70
12907;DHT22;6521;50.498;8.474;2022-11-02T05:27:37;10.26;80.83
12907;DHT22;6521;50.498;8.474;2022-11-02T05:30:08;10.22;80.77
12907;DHT22;6521;50.498;8.474;2022-11-02T05:32:39;10.18;80.80
12907;DHT22;6521;50.498;8.474;2022-11-02T05:35:11;10.12;81.07
12907;DHT22;6521;50.498;8.474;2022-11-02T05:37:42;10.09;81.21
12907;DHT22;6521;50.498;8.474;2022-11-02T05:40:13;10.06;81.40
12907;DHT22;6521;50.498;8.474;2022-11-02T05:42:44;10.02;81.80
12907;DHT22;6521;50.498;8.474;2022-11-02T05:45:15;10.03;81.80
12907;DHT22;6521;50.498;8.474;2022-11-02T05:47:45;10.10;81.81
12907;DHT22;6521;50.498;8.474;2022-11-02T05:50:16;10.16;81.66
12907;DHT22;6521;50.498;8.474;2022-11-02T05:52:47;10.15;81.68
12907;DHT22;6521;50.498;8.474;2022-11-02T05:55:18;10.19;81.70
12907;DHT22;6521;50.498;8.474;2022-11-02T05:57:50;10.22;81.60
12907;DHT22;6521;50.498;8.474;2022-11-02T06:00:22;10.26;81.40
12907;DHT22;6521;50.498;8.474;2022-11-02T06:02:56;10.26;81.37
12907;DHT22;6521;50.498;8.474;2022-11-02T06:05:27;10.29;81.47
12907;DHT22;6521;50.498;8.474;2022-11-02T06:07:58;10.36;81.27
12907;DHT22;6521;50.498;8.474;2022-11-02T06:10:30;10.39;81.06
12907;DHT22;6521;50.498;8.474;2022-11-02T06:13:02;10.43;80.88
12907;DHT22;6521;50.498;8.474;2022-11-02T06:15:32;10.50;80.86
12907;DHT22;6521;50.498;8.474;2022-11-02T06:18:03;10.53;80.73
12907;DHT22;6521;50.498;8.474;2022-11-02T06:20:34;10.52;80.73
12907;DHT22;6521;50.498;8.474;2022-11-02T06:23:05;10.55;80.40
12907;DHT22;6521;50.498;8.474;2022-11-02T06:25:35;10.57;80.23
12907;DHT22;6521;50.498;8.474;2022-11-02T06:28:06;10.57;80.12
12907;DHT22;6521;50.498;8.474;2022-11-02T06:30:37;10.53;80.15
12907;DHT22;6521;50.498;8.474;2022-11-02T06:33:08;10.50;80.25
12907;DHT22;6521;50.498;8.474;2022-11-02T06:35:39;10.53;80.24
12907;DHT22;6521;50.498;8.474;2022-11-02T06:38:09;10.50;80.44
12907;DHT22;6521;50.498;8.474;2022-11-02T06:40:40;10.50;80.40
12907;DHT22;6521;50.498;8.474;2022-11-02T06:43:11;10.50;80.42
12907;DHT22;6521;50.498;8.474;2022-11-02T06:45:42;10.50;80.21
12907;DHT22;6521;50.498;8.474;2022-11-02T06:48:12;10.56;80.09
12907;DHT22;6521;50.498;8.474;2022-11-02T06:50:43;10.47;80.23
12907;DHT22;6521;50.498;8.474;2022-11-02T06:53:14;10.52;80.01
12907;DHT22;6521;50.498;8.474;2022-11-02T06:55:50;10.52;79.98
12907;DHT22;6521;50.498;8.474;2022-11-02T06:58:22;10.50;79.90
12907;DHT22;6521;50.498;8.474;2022-11-02T07:00:59;10.53;79.92
12907;DHT22;6521;50.498;8.474;2022-11-02T07:03:30;10.56;79.55
12907;DHT22;6521;50.498;8.474;2022-11-02T07:06:01;10.55;79.47
12907;DHT22;6521;50.498;8.474;2022-11-02T07:08:32;10.52;79.73
12907;DHT22;6521;50.498;8.474;2022-11-02T07:11:03;10.53;79.71
12907;DHT22;6521;50.498;8.474;2022-11-02T07:13:34;10.52;79.80
12907;DHT22;6521;50.498;8.474;2022-11-02T07:16:05;10.50;79.58
12907;DHT22;6521;50.498;8.474;2022-11-02T07:18:36;10.57;79.12
12907;DHT22;6521;50.498;8.474;2022-11-02T07:21:07;10.61;78.88
12907;DHT22;6521;50.498;8.474;2022-11-02T07:23:39;10.68;78.80
12907;DHT22;6521;50.498;8.474;2022-11-02T07:26:10;10.68;78.63
12907;DHT22;6521;50.498;8.474;2022-11-02T07:28:41;10.74;78.55
12907;DHT22;6521;50.498;8.474;2022-11-02T07:31:12;10.70;78.57
12907;DHT22;6521;50.498;8.474;2022-11-02T07:33:42;10.73;78.74
12907;DHT22;6521;50.498;8.474;2022-11-02T07:36:13;10.76;78.46
12907;DHT22;6521;50.498;8.474;2022-11-02T07:38:44;10.76;78.59
12907;DHT22;6521;50.498;8.474;2022-11-02T07:41:15;10.76;78.63
12907;DHT22;6521;50.498;8.474;2022-11-02T07:43:46;10.76;78.56
12907;DHT22;6521;50.498;8.474;2022-11-02T07:46:28;10.80;78.23
12907;DHT22;6521;50.498;8.474;2022-11-02T07:48:59;10.77;78.43
12907;DHT22;6521;50.498;8.474;2022-11-02T07:51:30;10.81;78.37
12907;DHT22;6521;50.498;8.474;2022-11-02T07:54:00;10.93;77.72
12907;DHT22;6521;50.498;8.474;2022-11-02T07:56:32;10.96;77.78
12907;DHT22;6521;50.498;8.474;2022-11-02T07:59:03;10.97;77.53
12907;DHT22;6521;50.498;8.474;2022-11-02T08:01:33;11.03;77.19
12907;DHT22;6521;50.498;8.474;2022-11-02T08:04:04;11.04;76.95
12907;DHT22;6521;50.498;8.474;2022-11-02T08:06:35;11.10;76.96
12907;DHT22;6521;50.498;8.474;2022-11-02T08:09:05;11.14;77.00
12907;DHT22;6521;50.498;8.474;2022-11-02T08:11:37;11.18;76.87
12907;DHT22;6521;50.498;8.474;2022-11-02T08:14:07;11.26;76.17
12907;DHT22;6521;50.498;8.474;2022-11-02T08:16:38;11.26;76.29
12907;DHT22;6521;50.498;8.474;2022-11-02T08:19:09;11.31;75.84
12907;DHT22;6521;50.498;8.474;2022-11-02T08:21:39;11.36;75.69
12907;DHT22;6521;50.498;8.474;2022-11-02T08:24:10;11.42;75.66
12907;DHT22;6521;50.498;8.474;2022-11-02T08:26:41;11.52;75.01
12907;DHT22;6521;50.498;8.474;2022-11-02T08:29:11;11.55;74.77
12907;DHT22;6521;50.498;8.474;2022-11-02T08:31:42;11.61;74.48
12907;DHT22;6521;50.498;8.474;2022-11-02T08:34:13;11.62;74.62
12907;DHT22;6521;50.498;8.474;2022-11-02T08:36:44;11.63;74.16
12907;DHT22;6521;50.498;8.474;2022-11-02T08:39:15;11.72;74.05
12907;DHT22;6521;50.498;8.474;2022-11-02T08:41:46;11.75;73.98
12907;DHT22;6521;50.498;8.474;2022-11-02T08:44:17;11.82;73.90
12907;DHT22;6521;50.498;8.474;2022-11-02T08:46:48;11.87;73.29
12907;DHT22;6521;50.498;8.474;2022-11-02T08:49:18;11.87;73.69
12907;DHT22;6521;50.498;8.474;2022-11-02T08:51:50;11.89;73.32
12907;DHT22;6521;50.498;8.474;2022-11-02T08:54:21;11.93;73.56
12907;DHT22;6521;50.498;8.474;2022-11-02T08:56:52;12.01;73.42
12907;DHT22;6521;50.498;8.474;2022-11-02T08:59:23;12.03;73.61
12907;DHT22;6521;50.498;8.474;2022-11-02T09:01:54;12.07;73.72
12907;DHT22;6521;50.498;8.474;2022-11-02T09:04:24;12.10;73.66
12907;DHT22;6521;50.498;8.474;2022-11-02T09:06:55;12.14;73.09
12907;DHT22;6521;50.498;8.474;2022-11-02T09:09:26;12.17;72.51
12907;DHT22;6521;50.498;8.474;2022-11-02T09:11:57;12.17;71.99
12907;DHT22;6521;50.498;8.474;2022-11-02T09:14:27;12.20;72.15
12907;DHT22;6521;50.498;8.474;2022-11-02T09:16:58;12.25;72.33
12907;DHT22;6521;50.498;8.474;2022-11-02T09:19:29;12.31;71.19
12907;DHT22;6521;50.498;8.474;2022-11-02T09:21:59;12.38;71.43
12907;DHT22;6521;50.498;8.474;2022-11-02T09:24:30;12.48;71.17
12907;DHT22;6521;50.498;8.474;2022-11-02T09:27:01;12.48;70.48
12907;DHT22;6521;50.498;8.474;2022-11-02T09:29:31;12.59;70.67
12907;DHT22;6521;50.498;8.474;2022-11-02T09:32:02;12.76;69.89
12907;DHT22;6521;50.498;8.474;2022-11-02T09:34:33;12.85;69.50
12907;DHT22;6521;50.498;8.474;2022-11-02T09:37:04;12.93;69.26
12907;DHT22;6521;50.498;8.474;2022-11-02T09:39:35;13.17;68.71
12907;DHT22;6521;50.498;8.474;2022-11-02T09:42:21;13.43;67.55
12907;DHT22;6521;50.498;8.474;2022-11-02T09:44:59;13.65;65.72
12907;DHT22;6521;50.498;8.474;2022-11-02T09:47:34;14.02;65.27
12907;DHT22;6521;50.498;8.474;2022-11-02T09:50:12;14.32;63.87
12907;DHT22;6521;50.498;8.474;2022-11-02T09:52:49;14.55;62.90
12907;DHT22;6521;50.498;8.474;2022-11-02T09:55:27;14.73;61.34
12907;DHT22;6521;50.498;8.474;2022-11-02T09:58:04;14.73;60.66
12907;DHT22;6521;50.498;8.474;2022-11-02T10:00:39;14.49;60.47
12907;DHT22;6521;50.498;8.474;2022-11-02T10:03:27;14.63;60.04
12907;DHT22;6521;50.498;8.474;2022-11-02T10:11:46;15.31;59.52
12907;DHT22;6521;50.498;8.474;2022-11-02T10:14:23;15.43;59.32
12907;DHT22;6521;50.498;8.474;2022-11-02T10:17:07;15.56;56.97
12907;DHT22;6521;50.498;8.474;2022-11-02T10:19:45;15.29;57.64
12907;DHT22;6521;50.498;8.474;2022-11-02T10:22:16;14.97;59.04
12907;DHT22;6521;50.498;8.474;2022-11-02T10:24:48;14.67;59.15
12907;DHT22;6521;50.498;8.474;2022-11-02T10:27:28;14.29;59.92
12907;DHT22;6521;50.498;8.474;2022-11-02T10:30:19;14.44;60.48
12907;DHT22;6521;50.498;8.474;2022-11-02T10:32:52;14.74;59.76
12907;DHT22;6521;50.498;8.474;2022-11-02T10:35:38;14.64;59.97
12907;DHT22;6521;50.498;8.474;2022-11-02T10:46:56;15.53;56.48
12907;DHT22;6521;50.498;8.474;2022-11-02T10:52:38;14.69;57.69
12907;DHT22;6521;50.498;8.474;2022-11-02T10:55:28;14.63;57.95
12907;DHT22;6521;50.498;8.474;2022-11-02T10:58:02;15.07;57.35
12907;DHT22;6521;50.498;8.474;2022-11-02T11:00:35;15.42;56.62
12907;DHT22;6521;50.498;8.474;2022-11-02T11:03:12;15.55;55.62
12907;DHT22;6521;50.498;8.474;2022-11-02T11:08:36;15.46;55.53
12907;DHT22;6521;50.498;8.474;2022-11-02T11:11:10;15.69;55.28
12907;DHT22;6521;50.498;8.474;2022-11-02T11:13:42;15.90;55.23
12907;DHT22;6521;50.498;8.474;2022-11-02T11:16:14;16.04;54.89
12907;DHT22;6521;50.498;8.474;2022-11-02T11:18:50;15.98;55.87
12907;DHT22;6521;50.498;8.474;2022-11-02T11:21:21;15.90;55.84
12907;DHT22;6521;50.498;8.474;2022-11-02T11:24:12;15.89;54.86
12907;DHT22;6521;50.498;8.474;2022-11-02T11:27:13;16.07;55.20
12907;DHT22;6521;50.498;8.474;2022-11-02T11:29:47;16.04;53.58
12907;DHT22;6521;50.498;8.474;2022-11-02T11:32:29;16.10;52.46
12907;DHT22;6521;50.498;8.474;2022-11-02T11:35:02;15.71;53.32
12907;DHT22;6521;50.498;8.474;2022-11-02T11:37:34;15.80;54.17
12907;DHT22;6521;50.498;8.474;2022-11-02T11:40:16;16.06;54.40
12907;DHT22;6521;50.498;8.474;2022-11-02T11:42:53;16.22;53.48
12907;DHT22;6521;50.498;8.474;2022-11-02T11:45:27;16.40;52.77
12907;DHT22;6521;50.498;8.474;2022-11-02T11:48:06;16.03;52.93
12907;DHT22;6521;50.498;8.474;2022-11-02T11:50:46;15.73;54.16
12907;DHT22;6521;50.498;8.474;2022-11-02T11:53:22;15.90;53.79
12907;DHT22;6521;50.498;8.474;2022-11-02T11:55:56;15.96;53.29
12907;DHT22;6521;50.498;8.474;2022-11-02T11:58:32;16.25;53.75
12907;DHT22;6521;50.498;8.474;2022-11-02T12:01:06;16.45;51.49
12907;DHT22;6521;50.498;8.474;2022-11-02T12:03:54;16.64;50.67
12907;DHT22;6521;50.498;8.474;2022-11-02T12:06:41;16.82;51.22
12907;DHT22;6521;50.498;8.474;2022-11-02T12:09:34;16.75;49.94
12907;DHT22;6521;50.498;8.474;2022-11-02T12:13:01;16.38;50.46
12907;DHT22;6521;50.498;8.474;2022-11-02T12:15:58;15.94;51.49
12907;DHT22;6521;50.498;8.474;2022-11-02T12:18:47;15.70;52.63
12907;DHT22;6521;50.498;8.474;2022-11-02T12:24:17;15.27;53.47
12907;DHT22;6521;50.498;8.474;2022-11-02T12:30:03;15.36;54.81
12907;DHT22;6521;50.498;8.474;2022-11-02T12:35:18;16.11;53.08
12907;DHT22;6521;50.498;8.474;2022-11-02T12:38:17;16.31;52.65
12907;DHT22;6521;50.498;8.474;2022-11-02T12:41:06;16.41;52.27
12907;DHT22;6521;50.498;8.474;2022-11-02T12:43:41;16.06;53.35
12907;DHT22;6521;50.498;8.474;2022-11-02T12:46:30;15.60;53.57
12907;DHT22;6521;50.498;8.474;2022-11-02T12:54:59;14.91;55.44
12907;DHT22;6521;50.498;8.474;2022-11-02T12:57:34;14.64;55.69
12907;DHT22;6521;50.498;8.474;2022-11-02T13:00:14;14.47;56.70
12907;DHT22;6521;50.498;8.474;2022-11-02T13:03:06;14.44;57.88
12907;DHT22;6521;50.498;8.474;2022-11-02T13:05:49;14.73;56.19
12907;DHT22;6521;50.498;8.474;2022-11-02T13:08:32;14.70;56.65
12907;DHT22;6521;50.498;8.474;2022-11-02T13:11:08;14.70;56.54
12907;DHT22;6521;50.498;8.474;2022-11-02T13:13:45;14.74;57.86
12907;DHT22;6521;50.498;8.474;2022-11-02T13:16:20;14.94;57.34
12907;DHT22;6521;50.498;8.474;2022-11-02T13:18:55;14.94;56.07
12907;DHT22;6521;50.498;8.474;2022-11-02T13:21:36;14.92;56.77
12907;DHT22;6521;50.498;8.474;2022-11-02T13:24:14;15.17;56.36
12907;DHT22;6521;50.498;8.474;2022-11-02T13:26:48;15.39;55.03
12907;DHT22;6521;50.498;8.474;2022-11-02T13:34:42;15.46;54.81
12907;DHT22;6521;50.498;8.474;2022-11-02T13:40:19;14.94;56.23
12907;DHT22;6521;50.498;8.474;2022-11-02T13:48:39;14.34;57.67
12907;DHT22;6521;50.498;8.474;2022-11-02T13:51:24;14.50;57.84
12907;DHT22;6521;50.498;8.474;2022-11-02T13:54:13;14.84;57.82
12907;DHT22;6521;50.498;8.474;2022-11-02T13:56:51;15.15;56.42
12907;DHT22;6521;50.498;8.474;2022-11-02T13:59:31;15.35;54.98
12907;DHT22;6521;50.498;8.474;2022-11-02T14:02:05;15.59;54.52
12907;DHT22;6521;50.498;8.474;2022-11-02T14:04:39;15.67;54.33
12907;DHT22;6521;50.498;8.474;2022-11-02T14:07:33;15.80;53.86
12907;DHT22;6521;50.498;8.474;2022-11-02T14:10:15;15.83;52.88
12907;DHT22;6521;50.498;8.474;2022-11-02T14:12:49;15.89;53.20
12907;DHT22;6521;50.498;8.474;2022-11-02T14:49:04;14.47;54.48
12907;DHT22;6521;50.498;8.474;2022-11-02T14:51:36;14.37;54.51
12907;DHT22;6521;50.498;8.474;2022-11-02T14:54:16;14.34;54.85
12907;DHT22;6521;50.498;8.474;2022-11-02T14:57:00;14.23;55.07
12907;DHT22;6521;50.498;8.474;2022-11-02T14:59:39;14.15;55.58
12907;DHT22;6521;50.498;8.474;2022-11-02T15:04:50;13.94;55.97
12907;DHT22;6521;50.498;8.474;2022-11-02T15:07:35;13.81;56.14
12907;DHT22;6521;50.498;8.474;2022-11-02T15:12:48;13.65;57.36
12907;DHT22;6521;50.498;8.474;2022-11-02T15:15:35;13.61;57.83
12907;DHT22;6521;50.498;8.474;2022-11-02T15:18:37;13.53;57.60
12907;DHT22;6521;50.498;8.474;2022-11-02T15:26:28;13.28;58.45
12907;DHT22;6521;50.498;8.474;2022-11-02T15:29:02;13.24;58.54
12907;DHT22;6521;50.498;8.474;2022-11-02T15:31:34;13.13;58.63
12907;DHT22;6521;50.498;8.474;2022-11-02T15:34:13;13.03;59.18
12907;DHT22;6521;50.498;8.474;2022-11-02T15:36:47;12.97;58.81
12907;DHT22;6521;50.498;8.474;2022-11-02T15:39:17;12.96;58.72
12907;DHT22;6521;50.498;8.474;2022-11-02T15:42:09;12.85;59.30
12907;DHT22;6521;50.498;8.474;2022-11-02T15:53:32;12.48;60.10
12907;DHT22;6521;50.498;8.474;2022-11-02T15:56:34;12.44;60.09
12907;DHT22;6521;50.498;8.474;2022-11-02T16:02:31;12.31;60.23
12907;DHT22;6521;50.498;8.474;2022-11-02T16:05:03;12.27;60.51
12907;DHT22;6521;50.498;8.474;2022-11-02T16:07:35;12.18;60.67
12907;DHT22;6521;50.498;8.474;2022-11-02T16:10:11;12.10;61.10
12907;DHT22;6521;50.498;8.474;2022-11-02T16:12:42;12.03;61.33
12907;DHT22;6521;50.498;8.474;2022-11-02T16:15:17;11.97;61.41
12907;DHT22;6521;50.498;8.474;2022-11-02T16:17:48;11.91;61.42
12907;DHT22;6521;50.498;8.474;2022-11-02T16:20:25;11.85;61.85
12907;DHT22;6521;50.498;8.474;2022-11-02T16:23:02;11.76;62.33
12907;DHT22;6521;50.498;8.474;2022-11-02T16:25:42;11.70;62.23
12907;DHT22;6521;50.498;8.474;2022-11-02T16:28:22;11.65;62.24
12907;DHT22;6521;50.498;8.474;2022-11-02T16:31:06;11.62;62.65
12907;DHT22;6521;50.498;8.474;2022-11-02T16:33:47;11.55;63.25
12907;DHT22;6521;50.498;8.474;2022-11-02T16:36:30;11.51;63.18
12907;DHT22;6521;50.498;8.474;2022-11-02T16:39:21;11.36;63.79
12907;DHT22;6521;50.498;8.474;2022-11-02T16:41:57;11.26;64.39
12907;DHT22;6521;50.498;8.474;2022-11-02T16:44:30;11.19;64.83
12907;DHT22;6521;50.498;8.474;2022-11-02T16:52:21;11.07;65.66
12907;DHT22;6521;50.498;8.474;2022-11-02T16:54:52;11.01;65.86
12907;DHT22;6521;50.498;8.474;2022-11-02T16:57:26;10.94;66.15
12907;DHT22;6521;50.498;8.474;2022-11-02T17:00:06;10.88;66.62
12907;DHT22;6521;50.498;8.474;2022-11-02T17:02:45;10.84;66.70
12907;DHT22;6521;50.498;8.474;2022-11-02T17:05:25;10.77;66.92
12907;DHT22;6521;50.498;8.474;2022-11-02T17:08:00;10.71;67.02
12907;DHT22;6521;50.498;8.474;2022-11-02T17:10:35;10.71;67.11
12907;DHT22;6521;50.498;8.474;2022-11-02T17:13:13;10.70;67.21
12907;DHT22;6521;50.498;8.474;2022-11-02T17:15:48;10.66;67.31
12907;DHT22;6521;50.498;8.474;2022-11-02T17:21:26;10.60;67.59
12907;DHT22;6521;50.498;8.474;2022-11-02T17:23:58;10.52;67.79
12907;DHT22;6521;50.498;8.474;2022-11-02T17:26:33;10.46;67.99
12907;DHT22;6521;50.498;8.474;2022-11-02T17:31:56;10.39;68.48
12907;DHT22;6521;50.498;8.474;2022-11-02T17:34:30;10.36;68.66
12907;DHT22;6521;50.498;8.474;2022-11-02T17:37:01;10.29;68.92
12907;DHT22;6521;50.498;8.474;2022-11-02T17:39:32;10.19;69.36
12907;DHT22;6521;50.498;8.474;2022-11-02T17:42:03;10.13;69.70
12907;DHT22;6521;50.498;8.474;2022-11-02T17:44:52;10.05;70.17
12907;DHT22;6521;50.498;8.474;2022-11-02T17:47:23;9.98;70.41
12907;DHT22;6521;50.498;8.474;2022-11-02T17:49:53;10.01;70.33
12907;DHT22;6521;50.498;8.474;2022-11-02T17:52:24;9.92;70.63
12907;DHT22;6521;50.498;8.474;2022-11-02T17:54:55;9.92;70.68
12907;DHT22;6521;50.498;8.474;2022-11-02T17:57:26;9.97;70.62
12907;DHT22;6521;50.498;8.474;2022-11-02T17:59:58;9.89;70.69
12907;DHT22;6521;50.498;8.474;2022-11-02T18:02:28;9.89;70.69
12907;DHT22;6521;50.498;8.474;2022-11-02T18:04:59;9.88;70.85
12907;DHT22;6521;50.498;8.474;2022-11-02T18:07:30;9.87;70.88
12907;DHT22;6521;50.498;8.474;2022-11-02T18:10:01;9.85;70.84
12907;DHT22;6521;50.498;8.474;2022-11-02T18:12:31;9.87;70.89
12907;DHT22;6521;50.498;8.474;2022-11-02T18:15:03;9.84;71.03
12907;DHT22;6521;50.498;8.474;2022-11-02T18:17:33;9.85;71.05
12907;DHT22;6521;50.498;8.474;2022-11-02T18:20:05;9.82;71.16
12907;DHT22;6521;50.498;8.474;2022-11-02T18:22:36;9.75;71.29
12907;DHT22;6521;50.498;8.474;2022-11-02T18:25:09;9.71;71.50
12907;DHT22;6521;50.498;8.474;2022-11-02T18:27:40;9.67;71.67
12907;DHT22;6521;50.498;8.474;2022-11-02T18:30:14;9.71;71.77
12907;DHT22;6521;50.498;8.474;2022-11-02T18:32:45;9.71;71.68
12907;DHT22;6521;50.498;8.474;2022-11-02T18:35:18;9.77;71.50
12907;DHT22;6521;50.498;8.474;2022-11-02T18:37:49;9.78;71.51
12907;DHT22;6521;50.498;8.474;2022-11-02T18:40:20;9.77;71.60
12907;DHT22;6521;50.498;8.474;2022-11-02T18:42:51;9.73;71.72
12907;DHT22;6521;50.498;8.474;2022-11-02T18:45:22;9.65;71.74
12907;DHT22;6521;50.498;8.474;2022-11-02T18:47:55;9.62;72.05
12907;DHT22;6521;50.498;8.474;2022-11-02T18:50:26;9.65;72.04
12907;DHT22;6521;50.498;8.474;2022-11-02T18:52:57;9.62;72.12
12907;DHT22;6521;50.498;8.474;2022-11-02T18:55:27;9.65;71.97
12907;DHT22;6521;50.498;8.474;2022-11-02T18:57:58;9.58;72.32
12907;DHT22;6521;50.498;8.474;2022-11-02T19:00:29;9.52;72.58